West Ealing, United Kingdom
Current Conditions -  °F | °C
As of 8:50 AM on Sunday 26 Oct 2014 (Local Time) from EGWU Reporting Station
Overcast Overcast  
Wind Chill: 13°   Ceiling: 2800
Heat Index: 13°   Visibility: 6mi
Dew Point:   Wind: 8mph
Humidity: 72%   Direction: 220°SW
Pressure: 30.15"   Gusts: NA
Location:  51.53°N, 0.33°W
Report Text: EGWU 260750Z 22007KT 9999 OVC028 13/08 Q1021 BLU NOSIG
Loading
Personal Weather Stations






























Interactive Weather Map
Tropical Storm Tracking
New forecast layout! Learn more

10-Day Weather Forecast

Advertisements
Track Severe Weather on mobile